createdAt,value
2019-05-26T00:00:42.259Z,4.5
2019-05-26T00:01:42.276Z,4.8
2019-05-26T00:02:42.352Z,4.5
2019-05-26T00:03:42.380Z,4.7
2019-05-26T00:04:42.383Z,4.6
2019-05-26T00:05:42.414Z,4.9
2019-05-26T00:06:42.432Z,5.2
2019-05-26T00:07:42.509Z,4.6
2019-05-26T00:08:42.585Z,4.4
2019-05-26T00:09:42.613Z,4.5
2019-05-26T00:10:42.617Z,4.4
2019-05-26T00:11:42.618Z,4.9
2019-05-26T00:12:42.626Z,4.4
2019-05-26T00:13:42.766Z,4.6
2019-05-26T00:14:42.769Z,4.4
2019-05-26T00:15:42.813Z,4.7
2019-05-26T00:16:42.802Z,4.6
2019-05-26T00:17:42.852Z,4.7
2019-05-26T00:18:42.873Z,4
2019-05-26T00:19:42.880Z,4.2
2019-05-26T00:20:42.963Z,4.1
2019-05-26T00:21:42.967Z,4.7
2019-05-26T00:22:42.965Z,4.5
2019-05-26T00:23:43.044Z,4.5
2019-05-26T00:24:43.048Z,4.4
2019-05-26T00:25:43.074Z,5.1
2019-05-26T00:26:43.121Z,4.7
2019-05-26T00:27:43.165Z,4.7
2019-05-26T00:28:43.244Z,4.7
2019-05-26T00:29:43.300Z,4.6
2019-05-26T00:30:43.325Z,4.6
2019-05-26T00:31:43.348Z,4.9
2019-05-26T00:32:43.379Z,4.9
2019-05-26T00:33:43.363Z,4.4
2019-05-26T00:34:43.420Z,4.3
2019-05-26T00:35:43.422Z,4.5
2019-05-26T00:36:43.443Z,4.6
2019-05-26T00:37:49.445Z,4.2
2019-05-26T00:38:43.606Z,4.4
2019-05-26T00:39:43.757Z,4.6
2019-05-26T00:40:43.670Z,4.6
2019-05-26T00:41:43.714Z,4.9
2019-05-26T00:42:43.768Z,4.4
2019-05-26T00:43:43.794Z,4.3
2019-05-26T00:44:43.845Z,4.3
2019-05-26T00:45:43.912Z,4.7
2019-05-26T00:46:43.937Z,4.3
2019-05-26T00:47:43.941Z,4.6
2019-05-26T00:48:43.955Z,4.5
2019-05-26T00:49:44.126Z,4.7
2019-05-26T00:50:44.140Z,4.6
2019-05-26T00:51:44.211Z,4.7
2019-05-26T00:52:44.357Z,4.8
2019-05-26T00:53:44.347Z,4.5
2019-05-26T00:54:44.299Z,4.5
2019-05-26T00:55:44.332Z,4.7
2019-05-26T00:56:44.413Z,4.6
2019-05-26T00:57:44.536Z,4.6
2019-05-26T00:58:44.745Z,4.6
2019-05-26T00:59:44.656Z,4.7
2019-05-26T01:00:44.770Z,4.8
2019-05-26T01:01:44.786Z,4.8
2019-05-26T01:02:44.883Z,4.9
2019-05-26T01:03:44.994Z,4.4
2019-05-26T01:04:44.974Z,4.5
2019-05-26T01:05:45.055Z,4.8
2019-05-26T01:06:45.121Z,4.6
2019-05-26T01:07:45.137Z,4.4
2019-05-26T01:08:45.197Z,4.5
2019-05-26T01:09:45.367Z,4.4
2019-05-26T01:10:45.298Z,4.3
2019-05-26T01:11:45.353Z,4.5
2019-05-26T01:12:45.390Z,4.5
2019-05-26T01:13:45.424Z,4.4
2019-05-26T01:14:45.670Z,4.5
2019-05-26T01:15:45.861Z,4.4
2019-05-26T01:16:45.706Z,4.1
2019-05-26T01:17:45.706Z,4.2
2019-05-26T01:18:45.796Z,4.6
2019-05-26T01:19:45.998Z,4.7
2019-05-26T01:20:45.905Z,4.3
2019-05-26T01:21:45.930Z,4.2
2019-05-26T01:22:46.008Z,4.4
2019-05-26T01:23:46.086Z,4.1
2019-05-26T01:24:46.087Z,4.5
2019-05-26T01:25:46.148Z,4.2
2019-05-26T01:26:46.285Z,4.5
2019-05-26T01:27:46.285Z,4.8
2019-05-26T01:28:46.355Z,4.7
2019-05-26T01:29:46.385Z,4.8
2019-05-26T01:30:46.509Z,4.9
2019-05-26T01:31:46.633Z,4.7
2019-05-26T01:32:46.541Z,5.2
2019-05-26T01:33:46.539Z,4.6
2019-05-26T01:34:46.567Z,4.7
2019-05-26T01:35:46.635Z,5.4
2019-05-26T01:36:46.705Z,5.3
2019-05-26T01:37:46.700Z,4.8
2019-05-26T01:38:46.778Z,5.2
2019-05-26T01:39:46.853Z,5.4
2019-05-26T01:40:47.008Z,5.3
2019-05-26T01:41:47.209Z,5.7
2019-05-26T01:42:47.289Z,5.3
2019-05-26T01:43:47.352Z,5.2
2019-05-26T01:44:47.365Z,5.3
2019-05-26T01:45:47.410Z,5.3
2019-05-26T01:46:47.466Z,5
2019-05-26T01:47:47.506Z,5.3
2019-05-26T01:48:47.590Z,5.3
2019-05-26T01:49:47.709Z,5.2
2019-05-26T01:50:47.783Z,5.5
2019-05-26T01:51:47.821Z,5.5
2019-05-26T01:52:47.948Z,5.8
2019-05-26T01:53:48.064Z,5.5
2019-05-26T01:54:48.171Z,5.9
2019-05-26T01:55:48.264Z,5.8
2019-05-26T01:56:48.219Z,6
2019-05-26T01:57:48.365Z,5.8
2019-05-26T02:02:48.777Z,6.2
2019-05-26T02:03:48.889Z,6.6
2019-05-26T02:04:49.046Z,5.7
2019-05-26T02:05:49.134Z,6
2019-05-26T02:06:49.175Z,6.2
2019-05-26T02:07:49.253Z,6
2019-05-26T02:08:49.223Z,5.9
2019-05-26T02:09:49.382Z,6.2
2019-05-26T02:10:49.397Z,6.2
2019-05-26T02:11:49.542Z,6.2
2019-05-26T02:12:49.425Z,6.4
2019-05-26T02:13:49.382Z,6.6
2019-05-26T02:14:49.347Z,6.4
2019-05-26T02:15:49.490Z,6
2019-05-26T02:16:50.467Z,6.6
2019-05-26T02:17:49.751Z,7.2
2019-05-26T02:18:49.795Z,6.4
2019-05-26T02:19:49.826Z,6.7
2019-05-26T02:20:49.878Z,6.2
2019-05-26T02:21:49.916Z,7
2019-05-26T02:22:50.066Z,6.4
2019-05-26T02:23:50.114Z,7.1
2019-05-26T02:24:50.119Z,6.2
2019-05-26T02:25:50.103Z,7
2019-05-26T02:26:50.103Z,6.9
2019-05-26T02:27:50.167Z,6.9
2019-05-26T02:28:50.179Z,6.9
2019-05-26T02:29:50.289Z,6.9
2019-05-26T02:30:50.391Z,6.8
2019-05-26T02:31:50.525Z,7.4
2019-05-26T02:32:51.774Z,6.7
2019-05-26T02:33:50.666Z,7.3
2019-05-26T02:34:50.851Z,7.4
2019-05-26T02:35:50.886Z,7.7
2019-05-26T02:36:50.928Z,7.5
2019-05-26T02:37:51.217Z,7.4
2019-05-26T02:39:01.716Z,7.7
2019-05-26T02:39:52.251Z,7.8
2019-05-26T02:40:51.257Z,7
2019-05-26T02:41:51.310Z,8.1
2019-05-26T02:42:52.457Z,8.2
2019-05-26T02:43:51.513Z,7.6
2019-05-26T02:44:51.558Z,7.8
2019-05-26T02:45:51.618Z,7.8
2019-05-26T02:46:51.672Z,7.7
2019-05-26T02:47:51.734Z,8.2
2019-05-26T02:48:51.857Z,7.9
2019-05-26T02:49:51.928Z,8.1
2019-05-26T02:50:51.977Z,8.2
2019-05-26T02:51:52.048Z,7.7
2019-05-26T02:52:52.102Z,8.1
2019-05-26T02:53:52.228Z,8.2
2019-05-26T02:54:52.275Z,8.1
2019-05-26T02:55:52.335Z,7.7
2019-05-26T02:56:52.391Z,8.3
2019-05-26T02:57:52.457Z,8.5
2019-05-26T02:58:52.526Z,8.4
2019-05-26T02:59:52.592Z,8.3
2019-05-26T03:00:52.666Z,7.8
2019-05-26T03:02:02.830Z,8.8
2019-05-26T03:02:53.732Z,7.9
2019-05-26T03:03:52.848Z,8.3
2019-05-26T03:04:53.015Z,7.7
2019-05-26T03:05:53.116Z,8.1
2019-05-26T03:06:53.033Z,8.3
2019-05-26T03:07:53.095Z,8.5
2019-05-26T03:08:53.197Z,8.5
2019-05-26T03:09:53.329Z,7.9
2019-05-26T03:10:53.425Z,8.8
2019-05-26T03:11:53.477Z,8.9
2019-05-26T03:12:53.545Z,8.7
2019-05-26T03:13:53.611Z,8.9
2019-05-26T03:14:53.778Z,9.2
2019-05-26T03:15:53.849Z,8.7
2019-05-26T03:16:53.918Z,8.7
2019-05-26T03:17:53.980Z,8.1
2019-05-26T03:18:54.066Z,8.8
2019-05-26T03:19:54.153Z,8.9
2019-05-26T03:20:54.218Z,9.1
2019-05-26T03:21:54.276Z,9
2019-05-26T03:22:54.327Z,9
2019-05-26T03:23:54.390Z,9.5
2019-05-26T03:24:54.481Z,8.6
2019-05-26T03:25:54.537Z,9
2019-05-26T03:26:54.641Z,9.6
2019-05-26T03:27:54.703Z,9.6
2019-05-26T03:28:54.820Z,9.3
2019-05-26T03:29:54.908Z,9.8
2019-05-26T03:30:55.016Z,9.6
2019-05-26T03:31:55.070Z,10.3
2019-05-26T03:32:55.065Z,10.1
2019-05-26T03:33:55.070Z,10.6
2019-05-26T03:34:55.112Z,10.2
2019-05-26T03:35:55.132Z,10.2
2019-05-26T03:36:55.137Z,10.7
2019-05-26T03:37:55.144Z,10.6
2019-05-26T03:38:55.140Z,10.4
2019-05-26T03:39:55.166Z,10.7
2019-05-26T03:40:55.177Z,11.2
2019-05-26T03:41:55.182Z,11.2
2019-05-26T03:42:55.182Z,11.2
2019-05-26T03:43:55.205Z,11.5
2019-05-26T03:44:55.239Z,11.3
2019-05-26T03:45:55.270Z,11.2
2019-05-26T03:46:55.282Z,12.3
2019-05-26T03:47:55.325Z,12.5
2019-05-26T03:48:55.343Z,11.6
2019-05-26T03:49:55.375Z,12.3
2019-05-26T03:50:55.456Z,11.8
2019-05-26T03:51:55.474Z,11.5
2019-05-26T03:52:55.495Z,12
2019-05-26T03:53:55.553Z,12.1
2019-05-26T03:54:55.609Z,12.2
2019-05-26T03:55:55.731Z,12.1
2019-05-26T03:56:55.842Z,12.3
2019-05-26T03:57:55.790Z,11.7
2019-05-26T03:58:55.806Z,12.8
2019-05-26T03:59:55.827Z,12.3
2019-05-26T04:00:55.881Z,12.5
2019-05-26T04:01:57.422Z,12.7
2019-05-26T04:02:56.108Z,12.1
2019-05-26T04:03:56.178Z,12.8
2019-05-26T04:04:56.224Z,13.1
2019-05-26T04:05:56.266Z,13
2019-05-26T04:06:56.311Z,13.6
2019-05-26T04:07:56.323Z,13.4
2019-05-26T04:08:57.330Z,14
2019-05-26T04:10:04.385Z,13.4
2019-05-26T04:10:56.470Z,14.1
2019-05-26T04:11:56.488Z,14
2019-05-26T04:12:56.516Z,13.9
2019-05-26T04:13:56.573Z,13.8
2019-05-26T04:14:56.565Z,13.8
2019-05-26T04:15:56.736Z,14
2019-05-26T04:16:56.622Z,14.5
2019-05-26T04:17:56.636Z,14.5
2019-05-26T04:18:56.645Z,13.7
2019-05-26T04:19:56.637Z,14.5
2019-05-26T04:20:56.642Z,14.1
2019-05-26T04:21:56.719Z,14.5
2019-05-26T04:22:56.732Z,14.3
2019-05-26T04:23:56.756Z,14.6
2019-05-26T04:24:57.781Z,14.3
2019-05-26T04:25:56.787Z,14.7
2019-05-26T04:26:56.822Z,14.7
2019-05-26T04:27:56.846Z,15.6
2019-05-26T04:28:56.864Z,15
2019-05-26T04:29:56.907Z,14.8
2019-05-26T04:30:56.941Z,15.1
2019-05-26T04:32:01.678Z,15.4
2019-05-26T04:32:56.968Z,14.9
2019-05-26T04:33:56.993Z,15.2
2019-05-26T04:34:57.022Z,15.6
2019-05-26T04:35:57.117Z,15.7
2019-05-26T04:36:57.178Z,16.1
2019-05-26T04:37:57.275Z,15.5
2019-05-26T04:38:57.319Z,16.1
2019-05-26T04:39:57.358Z,15
2019-05-26T04:40:57.382Z,16.4
2019-05-26T04:41:57.432Z,15.6
2019-05-26T04:42:57.523Z,16.200001
2019-05-26T04:43:57.573Z,16.1
2019-05-26T04:44:57.599Z,16.200001
2019-05-26T04:45:57.634Z,16.5
2019-05-26T04:46:57.719Z,16.5
2019-05-26T04:47:57.832Z,17
2019-05-26T04:48:57.875Z,17.299999
2019-05-26T04:49:57.914Z,17.200001
2019-05-26T04:50:57.938Z,17.200001
2019-05-26T04:51:57.977Z,18.1
2019-05-26T04:53:05.861Z,18.1
2019-05-26T04:53:58.016Z,17.6
2019-05-26T04:54:58.039Z,18.700001
2019-05-26T04:55:58.046Z,18.200001
2019-05-26T04:56:58.092Z,18.799999
2019-05-26T04:57:58.148Z,18.5
2019-05-26T04:58:58.178Z,19.1
2019-05-26T04:59:58.195Z,19.200001
2019-05-26T05:00:58.188Z,19.299999
2019-05-26T05:01:58.200Z,19.4
2019-05-26T05:02:58.218Z,19.5
2019-05-26T05:03:58.240Z,19.5
2019-05-26T05:04:58.243Z,19.4
2019-05-26T05:05:58.264Z,20.200001
2019-05-26T05:06:58.275Z,19.700001
2019-05-26T05:07:58.313Z,20.4
2019-05-26T05:08:58.324Z,19.700001
2019-05-26T05:09:58.328Z,20.700001
2019-05-26T05:10:58.362Z,20
2019-05-26T05:11:58.360Z,20.299999
2019-05-26T05:12:58.434Z,21
2019-05-26T05:13:58.405Z,21.5
2019-05-26T05:14:58.426Z,22.1
2019-05-26T05:15:58.477Z,21
2019-05-26T05:16:58.489Z,22.4
2019-05-26T05:17:58.564Z,22.299999
2019-05-26T05:18:58.634Z,22.1
2019-05-26T05:19:58.658Z,22.200001
2019-05-26T05:20:58.707Z,22.299999
2019-05-26T05:21:58.765Z,22.799999
2019-05-26T05:22:58.866Z,23.5
2019-05-26T05:23:58.877Z,23.5
2019-05-26T05:24:58.905Z,22.299999
2019-05-26T05:25:58.903Z,23.799999
2019-05-26T05:26:58.968Z,23.799999
2019-05-26T05:27:59.091Z,23.700001
2019-05-26T05:28:59.128Z,23.200001
2019-05-26T05:29:59.165Z,23.700001
2019-05-26T05:30:59.217Z,23.299999
2019-05-26T05:31:59.227Z,23.5
2019-05-26T05:32:59.318Z,24.700001
2019-05-26T05:33:59.370Z,24.1
2019-05-26T05:34:59.417Z,24.700001
2019-05-26T05:35:59.462Z,24.1
2019-05-26T05:36:59.494Z,24.5
2019-05-26T05:37:59.501Z,24.799999
2019-05-26T05:38:59.583Z,25.4
2019-05-26T05:39:59.589Z,25
2019-05-26T05:41:00.428Z,25.4
2019-05-26T05:41:59.609Z,24.700001
2019-05-26T05:42:59.658Z,25.1
2019-05-26T05:43:59.686Z,25.6
2019-05-26T05:44:59.689Z,24.9
2019-05-26T05:45:59.705Z,26
2019-05-26T05:46:59.718Z,26.9
2019-05-26T05:47:59.738Z,26.200001
2019-05-26T05:48:59.783Z,25.9
2019-05-26T05:49:59.798Z,26.299999
2019-05-26T05:50:59.814Z,25.5
2019-05-26T05:51:59.852Z,27
2019-05-26T05:52:59.857Z,26.4
2019-05-26T05:53:59.931Z,26.4
2019-05-26T05:54:59.932Z,26.5
2019-05-26T05:55:59.960Z,27.1
2019-05-26T05:56:59.955Z,26.200001
2019-05-26T05:57:59.962Z,26.799999
2019-05-26T05:59:00.016Z,26.799999
2019-05-26T06:00:00.030Z,27.4
2019-05-26T06:01:00.054Z,26.6
2019-05-26T06:02:00.092Z,26.299999
2019-05-26T06:03:00.124Z,26
2019-05-26T06:04:00.184Z,26.299999
2019-05-26T06:05:00.297Z,27.700001
2019-05-26T06:06:00.347Z,26.799999
2019-05-26T06:07:00.450Z,26.4
2019-05-26T06:08:00.539Z,25.700001
2019-05-26T06:09:00.602Z,25.1
2019-05-26T06:10:00.700Z,25.1
2019-05-26T06:11:15.211Z,25.5
2019-05-26T06:12:00.736Z,24.700001
2019-05-26T06:13:00.770Z,23.799999
2019-05-26T06:14:00.800Z,24
2019-05-26T06:15:00.926Z,24.700001
2019-05-26T06:16:00.917Z,23.9
2019-05-26T06:17:00.957Z,23.5
2019-05-26T06:18:00.999Z,22.5
2019-05-26T06:19:01.029Z,22.9
2019-05-26T06:20:01.079Z,23.799999
2019-05-26T06:21:01.131Z,23.200001
2019-05-26T06:22:01.191Z,23.200001
2019-05-26T06:23:01.266Z,22.700001
2019-05-26T06:24:01.335Z,22.4
2019-05-26T06:25:01.432Z,23.5
2019-05-26T06:26:01.455Z,22.9
2019-05-26T06:27:01.475Z,22.200001
2019-05-26T06:28:01.658Z,21.799999
2019-05-26T06:29:01.531Z,21.799999
2019-05-26T06:30:01.567Z,22.6
2019-05-26T06:31:01.581Z,22.4
2019-05-26T06:32:01.784Z,21.9
2019-05-26T06:33:01.632Z,22
2019-05-26T06:34:01.656Z,21.6
2019-05-26T06:35:01.748Z,22.299999
2019-05-26T06:36:01.819Z,21.6
2019-05-26T06:37:01.813Z,22.4
2019-05-26T06:38:01.828Z,22.299999
2019-05-26T06:39:01.842Z,21.5
2019-05-26T06:40:01.857Z,22
2019-05-26T06:41:01.895Z,22
2019-05-26T06:42:01.943Z,22
2019-05-26T06:43:02.008Z,21.5
2019-05-26T06:44:02.030Z,21.700001
2019-05-26T06:45:02.057Z,22.5
2019-05-26T06:46:02.199Z,22.9
2019-05-26T06:47:02.226Z,22.200001
2019-05-26T06:48:02.252Z,21.9
2019-05-26T06:49:02.297Z,22.299999
2019-05-26T06:50:02.312Z,22.4
2019-05-26T06:51:02.359Z,22.200001
2019-05-26T06:52:02.379Z,22.799999
2019-05-26T06:53:02.396Z,23
2019-05-26T06:54:02.412Z,23
2019-05-26T06:55:02.443Z,24.5
2019-05-26T06:56:02.476Z,23.5
2019-05-26T06:57:02.510Z,23.6
2019-05-26T06:58:02.555Z,23.799999
2019-05-26T06:59:02.995Z,23.200001
2019-05-26T07:00:02.705Z,23.1
2019-05-26T07:01:02.889Z,23.700001
2019-05-26T07:02:02.833Z,23.4
2019-05-26T07:03:02.859Z,23.200001
2019-05-26T07:04:02.886Z,23.1
2019-05-26T07:05:02.898Z,23.200001
2019-05-26T07:06:02.929Z,23.6
2019-05-26T07:07:02.955Z,22.799999
2019-05-26T07:08:03.027Z,23.799999
2019-05-26T07:09:03.096Z,24
2019-05-26T07:10:03.399Z,23.700001
2019-05-26T07:11:03.321Z,23.5
2019-05-26T07:12:03.323Z,23.5
2019-05-26T07:13:03.424Z,22.9
2019-05-26T07:14:03.480Z,23.5
2019-05-26T07:15:03.528Z,24.6
2019-05-26T07:16:03.624Z,23.9
2019-05-26T07:17:03.572Z,24.299999
2019-05-26T07:18:03.608Z,24.200001
2019-05-26T07:19:03.693Z,24.299999
2019-05-26T07:20:03.793Z,24.1
2019-05-26T07:21:03.914Z,23.9
2019-05-26T07:22:03.967Z,24.6
2019-05-26T07:23:05.510Z,24.6
2019-05-26T07:24:04.094Z,24.9
2019-05-26T07:25:04.155Z,24.700001
2019-05-26T07:26:04.190Z,23.299999
2019-05-26T07:27:04.371Z,23.299999
2019-05-26T07:28:04.386Z,23.1
2019-05-26T07:29:04.393Z,23.1
2019-05-26T07:30:04.537Z,23
2019-05-26T07:31:04.675Z,22.5
2019-05-26T07:32:04.831Z,22.700001
2019-05-26T07:33:04.878Z,21.700001
2019-05-26T07:34:04.966Z,21.200001
2019-05-26T07:35:05.198Z,21
2019-05-26T07:36:05.126Z,20.799999
2019-05-26T07:37:05.291Z,23
2019-05-26T07:38:05.347Z,21.6
2019-05-26T07:39:05.384Z,21.700001
2019-05-26T07:40:05.428Z,20.799999
2019-05-26T07:41:05.427Z,20.6
2019-05-26T07:42:10.314Z,19.799999
2019-05-26T07:43:05.578Z,19.5
2019-05-26T07:44:05.674Z,20
2019-05-26T07:45:05.837Z,20.200001
2019-05-26T07:46:05.994Z,20.200001
2019-05-26T07:47:06.125Z,19.799999
2019-05-26T07:48:06.278Z,19
2019-05-26T07:49:06.216Z,19.1
2019-05-26T07:50:07.098Z,18.9
2019-05-26T07:51:06.539Z,19.4
2019-05-26T07:52:06.688Z,18.799999
2019-05-26T07:53:06.851Z,18.5
2019-05-26T07:54:06.815Z,17.700001
2019-05-26T07:55:06.933Z,18.700001
2019-05-26T07:56:07.062Z,18.4
2019-05-26T07:57:07.228Z,17.9
2019-05-26T07:58:07.422Z,16.9
2019-05-26T08:13:09.675Z,15.2
2019-05-26T08:20:09.568Z,14.6
2019-05-26T08:21:09.538Z,14.1
2019-05-26T08:22:09.679Z,13.7
2019-05-26T08:23:09.781Z,14.1
2019-05-26T08:24:13.991Z,12.5
2019-05-26T08:25:09.857Z,12.6
2019-05-26T08:26:09.945Z,13.2
2019-05-26T08:27:10.088Z,12.8
2019-05-26T08:28:10.252Z,12.7
2019-05-26T08:29:10.170Z,12.3
2019-05-26T08:30:10.532Z,12.4
2019-05-26T08:31:13.163Z,12.2
2019-05-26T08:32:10.327Z,11.6
2019-05-26T08:33:10.427Z,11.9
2019-05-26T08:34:10.369Z,12
2019-05-26T08:35:10.414Z,12.3
2019-05-26T08:36:10.561Z,12.1
2019-05-26T08:37:10.542Z,11.4
2019-05-26T08:38:10.656Z,12.2
2019-05-26T08:39:10.808Z,11.3
2019-05-26T08:40:10.793Z,11
2019-05-26T08:41:10.740Z,10.9
2019-05-26T08:42:24.580Z,10.8
2019-05-26T08:43:11.137Z,10.7
2019-05-26T08:44:12.840Z,10.5
2019-05-26T08:45:11.623Z,10.6
2019-05-26T08:46:11.223Z,10.4
2019-05-26T08:47:11.342Z,10
2019-05-26T08:48:11.384Z,10.3
2019-05-26T08:49:11.375Z,10.6
2019-05-26T08:50:11.430Z,10.3
2019-05-26T08:51:11.475Z,10.7
2019-05-26T08:52:12.687Z,10.7
2019-05-26T08:53:11.630Z,10.3
2019-05-26T08:54:11.860Z,10.6
2019-05-26T08:55:11.831Z,9.9
2019-05-26T08:56:11.930Z,9.8
2019-05-26T08:57:11.988Z,9.3
2019-05-26T08:58:12.073Z,9
2019-05-26T08:59:12.138Z,9.2
2019-05-26T09:00:12.158Z,9.7
2019-05-26T09:01:12.194Z,9.5
2019-05-26T09:02:12.266Z,9.9
2019-05-26T09:03:12.283Z,9.1
2019-05-26T09:04:12.487Z,9.3
2019-05-26T09:05:12.344Z,9
2019-05-26T09:06:12.456Z,8.4
2019-05-26T09:07:12.633Z,7.6
2019-05-26T09:08:12.525Z,7.7
2019-05-26T09:09:12.619Z,7.1
2019-05-26T09:10:12.712Z,7.3
2019-05-26T09:11:12.822Z,7.1
2019-05-26T09:12:12.859Z,6.7
2019-05-26T09:13:12.942Z,7.3
2019-05-26T09:14:13.057Z,6.7
2019-05-26T09:15:13.116Z,6.4
2019-05-26T09:16:13.161Z,6.5
2019-05-26T09:17:13.263Z,6
2019-05-26T09:18:13.325Z,5.9
2019-05-26T09:19:13.437Z,5.9
2019-05-26T09:20:13.562Z,5.8
2019-05-26T09:21:13.679Z,5.8
2019-05-26T09:22:13.550Z,5.7
2019-05-26T09:23:13.604Z,6.5
2019-05-26T09:24:13.655Z,6.4
2019-05-26T09:25:13.694Z,6.2
2019-05-26T09:26:13.794Z,5.9
2019-05-26T09:27:13.703Z,5.7
2019-05-26T09:28:13.738Z,6.1
2019-05-26T09:29:13.748Z,6.3
2019-05-26T09:30:13.761Z,6.7
2019-05-26T09:31:13.839Z,6.5
2019-05-26T09:32:13.846Z,6.6
2019-05-26T09:33:13.871Z,7.1
2019-05-26T09:34:13.890Z,6.9
2019-05-26T09:35:14.172Z,7
2019-05-26T09:36:14.081Z,7.3
2019-05-26T09:37:14.122Z,7
2019-05-26T09:38:14.142Z,6.7
2019-05-26T09:39:14.170Z,6.8
2019-05-26T09:40:14.165Z,7.1
2019-05-26T09:41:14.281Z,7.3
2019-05-26T09:42:14.309Z,7.4
2019-05-26T09:43:16.355Z,7.6
2019-05-26T09:44:14.370Z,7.9
2019-05-26T09:45:14.460Z,7.7
2019-05-26T09:46:14.506Z,7.6
2019-05-26T09:47:14.552Z,7.2
2019-05-26T09:48:14.605Z,7.5
2019-05-26T09:49:14.674Z,7.4
2019-05-26T09:50:14.700Z,7
2019-05-26T09:52:27.733Z,7.6
2019-05-26T09:53:27.241Z,7.9
2019-05-26T09:54:27.340Z,7.4
2019-05-26T09:55:27.361Z,7.5
2019-05-26T09:56:27.393Z,7.1
2019-05-26T09:57:27.456Z,7.1
2019-05-26T09:58:27.467Z,7.1
2019-05-26T09:59:27.475Z,6.9
2019-05-26T10:00:27.691Z,6.5
2019-05-26T10:01:27.530Z,6.6
2019-05-26T10:02:27.588Z,6.5
2019-05-26T10:03:27.608Z,6.8
2019-05-26T10:04:27.681Z,6.7
2019-05-26T10:05:27.722Z,5.8
2019-05-26T10:06:27.796Z,5.7
2019-05-26T10:07:27.849Z,5.4
2019-05-26T10:08:27.891Z,5.4
2019-05-26T10:09:27.959Z,5.4
2019-05-26T10:10:28.002Z,5
2019-05-26T10:11:28.077Z,5.3
2019-05-26T10:12:28.158Z,4.9
2019-05-26T10:13:31.568Z,5.4
2019-05-26T10:14:28.213Z,4.9
2019-05-26T10:15:28.230Z,5.2
2019-05-26T10:16:28.322Z,4.4
2019-05-26T10:17:28.341Z,4.7
2019-05-26T10:18:28.365Z,4.9
2019-05-26T10:19:28.391Z,4.8
2019-05-26T10:20:28.414Z,4.7
2019-05-26T10:21:28.407Z,4.4
2019-05-26T10:22:28.436Z,4.1
2019-05-26T10:23:28.444Z,4.6
2019-05-26T10:24:28.425Z,4.1
2019-05-26T10:25:28.621Z,4.1
2019-05-26T10:26:28.759Z,4
2019-05-26T10:27:28.788Z,4.4
2019-05-26T10:28:28.815Z,4.2
2019-05-26T10:29:28.815Z,4.3
2019-05-26T10:30:28.844Z,5
2019-05-26T10:31:28.891Z,4.1
2019-05-26T10:32:29.840Z,4.3
2019-05-26T10:33:28.940Z,4.8
2019-05-26T10:34:28.949Z,4.7
2019-05-26T10:35:28.965Z,4.9
2019-05-26T10:36:28.983Z,4.4
2019-05-26T10:37:29.001Z,4.4
2019-05-26T10:38:29.060Z,4.9
2019-05-26T10:39:29.129Z,4.6
2019-05-26T10:40:29.141Z,4.6
2019-05-26T10:41:29.146Z,5.3
2019-05-26T10:42:29.169Z,5.5
2019-05-26T10:43:29.262Z,4.6
2019-05-26T10:44:29.291Z,5.1
2019-05-26T10:45:29.306Z,5.5
2019-05-26T10:46:29.329Z,5.1
2019-05-26T10:47:29.339Z,5
2019-05-26T10:48:29.378Z,5.8
2019-05-26T10:49:29.410Z,5.2
2019-05-26T10:50:29.414Z,5.6
2019-05-26T10:51:29.430Z,5
2019-05-26T10:52:29.444Z,5.3
2019-05-26T10:53:29.465Z,5.2
2019-05-26T10:54:29.492Z,4.8
2019-05-26T10:55:29.523Z,4.9
2019-05-26T10:56:29.588Z,5.3
2019-05-26T10:57:29.609Z,5.4
2019-05-26T10:58:29.656Z,4.7
2019-05-26T10:59:31.214Z,4.6
2019-05-26T11:00:32.723Z,4.7
2019-05-26T11:01:29.709Z,4.9
2019-05-26T11:02:29.734Z,4.6
2019-05-26T11:03:29.790Z,4.8
2019-05-26T11:04:29.835Z,4.6
2019-05-26T11:05:29.892Z,4.6
2019-05-26T11:06:29.950Z,4.5
2019-05-26T11:07:29.985Z,4.4
2019-05-26T11:08:29.992Z,4.1
2019-05-26T11:09:30.039Z,4.5
2019-05-26T11:10:30.068Z,4.5
2019-05-26T11:11:30.125Z,4.7
2019-05-26T11:12:30.138Z,4.6
2019-05-26T11:13:30.170Z,4.5
2019-05-26T11:14:30.247Z,4.3
2019-05-26T11:15:30.405Z,4.3
2019-05-26T11:16:30.484Z,4.4
2019-05-26T11:17:30.499Z,4.2
2019-05-26T11:18:30.563Z,4.9
2019-05-26T11:19:30.657Z,4.6
2019-05-26T11:20:30.824Z,4.2
2019-05-26T11:21:30.691Z,4.1
2019-05-26T11:22:30.758Z,4.1
2019-05-26T11:23:30.853Z,4.2
2019-05-26T11:24:30.989Z,4.5
2019-05-26T11:25:31.038Z,4
2019-05-26T11:26:31.052Z,4.7
2019-05-26T11:27:31.104Z,4.4
2019-05-26T11:28:31.147Z,4.4
2019-05-26T11:29:31.259Z,4
2019-05-26T11:30:31.315Z,4.5
2019-05-26T11:31:31.326Z,4.3
2019-05-26T11:32:31.419Z,4.2
2019-05-26T11:33:31.524Z,4.3
2019-05-26T11:34:31.667Z,4.3
2019-05-26T11:35:32.684Z,4.3
2019-05-26T11:36:31.827Z,4.1
2019-05-26T11:37:31.776Z,4.3
2019-05-26T11:38:33.580Z,4.1
2019-05-26T11:39:31.892Z,4.4
2019-05-26T11:40:31.979Z,4
2019-05-26T11:41:32.066Z,3.9
2019-05-26T11:42:32.119Z,4.1
2019-05-26T11:43:32.181Z,3.7
2019-05-26T11:44:32.291Z,3.5
2019-05-26T11:45:32.405Z,3.4
2019-05-26T11:46:32.417Z,3.6
2019-05-26T11:47:32.422Z,3.6
2019-05-26T11:48:32.420Z,3.6
2019-05-26T11:49:32.452Z,3.4
2019-05-26T11:50:32.594Z,3
2019-05-26T11:51:32.574Z,2.8
2019-05-26T11:52:32.631Z,2.9
2019-05-26T11:53:32.722Z,2.7
2019-05-26T11:54:34.586Z,2.7
2019-05-26T11:55:32.832Z,2.6
2019-05-26T11:56:32.963Z,2.7
2019-05-26T11:57:36.144Z,3.3
2019-05-26T11:58:33.089Z,2.9
2019-05-26T11:59:33.176Z,2.8
2019-05-26T12:00:33.301Z,2.8
2019-05-26T12:01:33.364Z,3.2
2019-05-26T12:02:33.434Z,2.8
2019-05-26T12:03:33.483Z,3.1
2019-05-26T12:04:33.558Z,3.1
2019-05-26T12:05:33.604Z,2.8
2019-05-26T12:06:33.661Z,2.7
2019-05-26T12:07:33.889Z,2.7
2019-05-26T12:08:33.764Z,2.9
2019-05-26T12:09:33.948Z,2.8
2019-05-26T12:10:34.014Z,2.9
2019-05-26T12:11:34.117Z,3.1
2019-05-26T12:12:34.205Z,3
2019-05-26T12:13:36.617Z,2.6
2019-05-26T12:14:35.568Z,2.7
2019-05-26T12:15:34.381Z,2.8
2019-05-26T12:16:34.460Z,2.9
2019-05-26T12:17:34.528Z,3
2019-05-26T12:18:34.581Z,2.8
2019-05-26T12:19:34.666Z,3.1
2019-05-26T12:20:34.703Z,2.4
2019-05-26T12:21:34.797Z,2.7
2019-05-26T12:22:34.877Z,2.8
2019-05-26T12:23:34.939Z,2.6
2019-05-26T12:24:35.043Z,2.7
2019-05-26T12:25:35.075Z,2.6
2019-05-26T12:26:35.193Z,2.9
2019-05-26T12:27:35.219Z,2.2
2019-05-26T12:28:35.237Z,2.5
2019-05-26T12:29:35.279Z,2.8
2019-05-26T12:30:35.439Z,2.6
2019-05-26T12:31:35.553Z,2.4
2019-05-26T12:32:35.630Z,2.5
2019-05-26T12:33:35.753Z,2.5
2019-05-26T12:34:35.788Z,2.9
2019-05-26T12:35:35.832Z,2.7
2019-05-26T12:36:39.111Z,2.6
2019-05-26T12:37:35.949Z,3
2019-05-26T12:38:36.004Z,2.8
2019-05-26T12:39:36.053Z,2.8
2019-05-26T12:40:36.153Z,2.6
2019-05-26T12:41:37.288Z,2.6
2019-05-26T12:42:36.214Z,2.9
2019-05-26T12:43:36.244Z,2.8
2019-05-26T12:44:48.523Z,2.9
2019-05-26T12:45:36.360Z,3.1
2019-05-26T12:46:36.379Z,3.1
2019-05-26T12:47:36.525Z,2.9
2019-05-26T12:48:36.579Z,3.2
2019-05-26T12:49:36.752Z,3.9
2019-05-26T12:50:36.801Z,5
2019-05-26T12:51:36.817Z,4.9
2019-05-26T12:52:36.900Z,3.8
2019-05-26T12:53:36.905Z,3.2
2019-05-26T12:54:36.902Z,3.4
2019-05-26T12:55:36.941Z,3.1
2019-05-26T12:56:36.986Z,2.9
2019-05-26T12:57:37.093Z,3.1
2019-05-26T12:58:37.169Z,3.2
2019-05-26T12:59:37.316Z,3.2
2019-05-26T13:00:47.916Z,3.1
2019-05-26T13:01:37.401Z,3.6
2019-05-26T13:02:37.322Z,3.5
2019-05-26T13:03:50.427Z,3.8
2019-05-26T13:05:38.504Z,3.4
2019-05-26T13:06:39.158Z,3.7
2019-05-26T13:07:37.892Z,4.2
2019-05-26T13:08:37.583Z,3.7
2019-05-26T13:09:37.657Z,3.6
2019-05-26T13:10:37.726Z,4.3
2019-05-26T13:11:37.844Z,4.3
2019-05-26T13:12:37.984Z,4.1
2019-05-26T13:13:37.932Z,4
2019-05-26T13:16:18.405Z,4
2019-05-26T13:34:27.292Z,4.2
2019-05-26T13:35:41.132Z,4.5
2019-05-26T13:36:41.211Z,4.9
2019-05-26T13:37:41.706Z,4.9
2019-05-26T13:38:41.596Z,4.9
2019-05-26T13:39:41.430Z,4.8
2019-05-26T13:40:41.464Z,4.4
2019-05-26T13:41:41.471Z,4
2019-05-26T13:42:41.504Z,4.4
2019-05-26T13:43:41.558Z,4.3
2019-05-26T13:44:41.615Z,4.1
2019-05-26T13:45:41.629Z,4.1
2019-05-26T13:46:41.651Z,4.5
2019-05-26T13:47:41.729Z,4.3
2019-05-26T13:48:41.781Z,4.1
2019-05-26T13:49:41.860Z,4
2019-05-26T13:50:41.903Z,4.3
2019-05-26T13:51:41.963Z,4.1
2019-05-26T13:52:42.060Z,5
2019-05-26T13:53:42.077Z,4.1
2019-05-26T13:54:42.128Z,4.5
2019-05-26T13:55:42.158Z,4.1
2019-05-26T13:56:42.218Z,4.3
2019-05-26T13:57:42.234Z,4.1
2019-05-26T13:58:42.266Z,4.2
2019-05-26T13:59:42.370Z,3.8
2019-05-26T14:00:42.415Z,3.9
2019-05-26T14:01:42.423Z,4.2
2019-05-26T14:02:42.440Z,4
2019-05-26T14:03:42.440Z,3.8
2019-05-26T14:04:42.490Z,3.7
2019-05-26T14:05:42.546Z,3.6
2019-05-26T14:06:42.567Z,3.8
2019-05-26T14:07:42.600Z,3.9
2019-05-26T14:08:42.598Z,4.3
2019-05-26T14:09:42.620Z,3.9
2019-05-26T14:10:42.700Z,3.9
2019-05-26T14:11:42.697Z,3.6